Terminal Aerodrome Forecast
Issued by NWS Charleston, WV

Current Version | Previous Version | Text Only | Print | Product List | Glossary Off
Versions: 1 2 3 4 5 6 7 8 9 10 11 12 13 14 15 16 17 18 19 20 21 22 23 24 25 26

000
FTUS41 KRLX 200900 AAA
TAFEKN
TAF AMD
KEKN 200900Z 2009/2106 00000KT 1/2SM FG VV002
     FM201300 00000KT 2SM BR BKN002
     FM201400 28003KT P6SM BKN035
     FM201800 30003KT P6SM VCSH BKN050
     FM202300 VRB03KT P6SM BKN150=

USA.gov is the U.S. government's official web portal to all federal, state and local government web resources and services.